sensor_id;sensor_type;location;lat;lon;timestamp;pressure;altitude;pressure_sealevel;temperature;humidity
12215;BME280;6170;42.206;24.142;2023-04-22T00:00:09;98587.38;;;13.50;88.43
12215;BME280;6170;42.206;24.142;2023-04-22T00:02:37;98591.00;;;13.63;87.65
12215;BME280;6170;42.206;24.142;2023-04-22T00:05:06;98587.13;;;13.40;88.42
12215;BME280;6170;42.206;24.142;2023-04-22T00:07:33;98587.47;;;13.26;89.12
12215;BME280;6170;42.206;24.142;2023-04-22T00:10:02;98581.91;;;13.27;89.40
12215;BME280;6170;42.206;24.142;2023-04-22T00:12:29;98583.50;;;13.28;89.23
12215;BME280;6170;42.206;24.142;2023-04-22T00:14:56;98586.75;;;13.19;89.38
12215;BME280;6170;42.206;24.142;2023-04-22T00:17:23;98588.16;;;13.39;89.65
12215;BME280;6170;42.206;24.142;2023-04-22T00:19:50;98596.44;;;13.20;90.95
12215;BME280;6170;42.206;24.142;2023-04-22T00:22:17;98593.22;;;13.29;89.63
12215;BME280;6170;42.206;24.142;2023-04-22T00:24:44;98583.00;;;13.38;89.49
12215;BME280;6170;42.206;24.142;2023-04-22T00:27:12;98604.16;;;13.53;89.17
12215;BME280;6170;42.206;24.142;2023-04-22T00:29:39;98585.47;;;13.39;89.59
12215;BME280;6170;42.206;24.142;2023-04-22T00:32:06;98589.88;;;13.34;88.59
12215;BME280;6170;42.206;24.142;2023-04-22T00:34:33;98587.84;;;13.29;89.55
12215;BME280;6170;42.206;24.142;2023-04-22T00:37:00;98615.53;;;13.36;88.85
12215;BME280;6170;42.206;24.142;2023-04-22T00:39:27;98587.03;;;13.29;89.18
12215;BME280;6170;42.206;24.142;2023-04-22T00:41:54;98575.06;;;13.43;89.06
12215;BME280;6170;42.206;24.142;2023-04-22T00:44:23;98568.28;;;13.22;88.90
12215;BME280;6170;42.206;24.142;2023-04-22T00:46:51;98575.75;;;13.38;88.73
12215;BME280;6170;42.206;24.142;2023-04-22T00:49:19;98574.41;;;13.29;88.89
12215;BME280;6170;42.206;24.142;2023-04-22T00:51:45;98581.22;;;13.32;89.86
12215;BME280;6170;42.206;24.142;2023-04-22T00:54:12;98577.09;;;13.47;89.30
12215;BME280;6170;42.206;24.142;2023-04-22T00:56:39;98583.06;;;13.49;89.30
12215;BME280;6170;42.206;24.142;2023-04-22T00:59:08;98578.63;;;13.55;89.51
12215;BME280;6170;42.206;24.142;2023-04-22T01:01:36;98585.84;;;13.43;89.96
12215;BME280;6170;42.206;24.142;2023-04-22T01:04:03;98581.56;;;13.54;89.59
12215;BME280;6170;42.206;24.142;2023-04-22T01:06:30;98574.69;;;13.39;89.80
12215;BME280;6170;42.206;24.142;2023-04-22T01:08:58;98579.63;;;13.42;90.50
12215;BME280;6170;42.206;24.142;2023-04-22T01:11:26;98580.66;;;13.23;91.24
12215;BME280;6170;42.206;24.142;2023-04-22T01:13:53;98593.16;;;13.18;92.24
12215;BME280;6170;42.206;24.142;2023-04-22T01:16:20;98589.50;;;13.12;92.71
12215;BME280;6170;42.206;24.142;2023-04-22T01:18:48;98586.59;;;13.14;92.99
12215;BME280;6170;42.206;24.142;2023-04-22T01:21:17;98583.00;;;13.20;92.63
12215;BME280;6170;42.206;24.142;2023-04-22T01:23:46;98612.53;;;13.26;92.65
12215;BME280;6170;42.206;24.142;2023-04-22T01:26:13;98590.22;;;13.01;92.58
12215;BME280;6170;42.206;24.142;2023-04-22T01:28:40;98589.81;;;12.97;93.18
12215;BME280;6170;42.206;24.142;2023-04-22T01:31:07;98588.91;;;12.85;93.87
12215;BME280;6170;42.206;24.142;2023-04-22T01:33:35;98578.53;;;12.89;94.13
12215;BME280;6170;42.206;24.142;2023-04-22T01:36:02;98579.28;;;12.96;93.86
12215;BME280;6170;42.206;24.142;2023-04-22T01:38:29;98574.75;;;12.72;94.56
12215;BME280;6170;42.206;24.142;2023-04-22T01:40:59;98576.44;;;12.91;94.24
12215;BME280;6170;42.206;24.142;2023-04-22T01:43:27;98588.94;;;13.03;93.73
12215;BME280;6170;42.206;24.142;2023-04-22T01:45:55;98584.00;;;13.00;93.44
12215;BME280;6170;42.206;24.142;2023-04-22T01:48:22;98576.81;;;12.94;93.60
12215;BME280;6170;42.206;24.142;2023-04-22T01:50:49;98584.88;;;12.94;93.71
12215;BME280;6170;42.206;24.142;2023-04-22T01:53:16;98581.53;;;12.99;93.15
12215;BME280;6170;42.206;24.142;2023-04-22T01:55:43;98581.22;;;13.07;92.44
12215;BME280;6170;42.206;24.142;2023-04-22T01:58:12;98586.13;;;13.17;90.88
12215;BME280;6170;42.206;24.142;2023-04-22T02:00:39;98577.75;;;13.25;90.47
12215;BME280;6170;42.206;24.142;2023-04-22T02:03:06;98575.69;;;13.27;89.19
12215;BME280;6170;42.206;24.142;2023-04-22T02:05:32;98577.75;;;13.25;88.52
12215;BME280;6170;42.206;24.142;2023-04-22T02:07:59;98576.25;;;13.29;88.43
12215;BME280;6170;42.206;24.142;2023-04-22T02:10:26;98573.56;;;13.29;87.52
12215;BME280;6170;42.206;24.142;2023-04-22T02:12:53;98572.59;;;13.23;87.10
12215;BME280;6170;42.206;24.142;2023-04-22T02:15:21;98579.22;;;13.02;87.47
12215;BME280;6170;42.206;24.142;2023-04-22T02:17:48;98572.59;;;13.05;87.07
12215;BME280;6170;42.206;24.142;2023-04-22T02:20:16;98575.50;;;13.03;87.02
12215;BME280;6170;42.206;24.142;2023-04-22T02:22:43;98569.38;;;12.96;87.30
12215;BME280;6170;42.206;24.142;2023-04-22T02:25:10;98575.22;;;13.12;87.10
12215;BME280;6170;42.206;24.142;2023-04-22T02:27:38;98570.47;;;13.07;86.74
12215;BME280;6170;42.206;24.142;2023-04-22T02:30:06;98568.25;;;13.04;86.52
12215;BME280;6170;42.206;24.142;2023-04-22T02:32:35;98571.38;;;13.01;86.97
12215;BME280;6170;42.206;24.142;2023-04-22T02:35:03;98568.09;;;12.99;86.73
12215;BME280;6170;42.206;24.142;2023-04-22T02:37:30;98568.66;;;12.83;87.07
12215;BME280;6170;42.206;24.142;2023-04-22T02:39:57;98568.66;;;12.83;87.19
12215;BME280;6170;42.206;24.142;2023-04-22T02:42:24;98567.47;;;12.79;87.66
12215;BME280;6170;42.206;24.142;2023-04-22T02:44:51;98578.94;;;12.68;88.54
12215;BME280;6170;42.206;24.142;2023-04-22T02:47:18;98574.84;;;12.65;88.14
12215;BME280;6170;42.206;24.142;2023-04-22T02:49:46;98580.63;;;12.62;88.53
12215;BME280;6170;42.206;24.142;2023-04-22T02:52:13;98581.53;;;12.56;89.24
12215;BME280;6170;42.206;24.142;2023-04-22T02:54:40;98579.66;;;12.56;89.00
12215;BME280;6170;42.206;24.142;2023-04-22T02:57:07;98578.09;;;12.67;88.79
12215;BME280;6170;42.206;24.142;2023-04-22T02:59:34;98579.59;;;12.63;89.10
12215;BME280;6170;42.206;24.142;2023-04-22T03:02:01;98576.81;;;12.51;88.70
12215;BME280;6170;42.206;24.142;2023-04-22T03:04:28;98577.31;;;12.42;88.94
12215;BME280;6170;42.206;24.142;2023-04-22T03:06:58;98576.56;;;12.28;89.63
12215;BME280;6170;42.206;24.142;2023-04-22T03:09:25;98578.72;;;12.20;89.85
12215;BME280;6170;42.206;24.142;2023-04-22T03:11:51;98581.50;;;12.00;90.90
12215;BME280;6170;42.206;24.142;2023-04-22T03:14:18;98577.50;;;11.84;90.87
12215;BME280;6170;42.206;24.142;2023-04-22T03:16:45;98577.22;;;11.48;91.82
12215;BME280;6170;42.206;24.142;2023-04-22T03:19:12;98574.16;;;11.44;92.06
12215;BME280;6170;42.206;24.142;2023-04-22T03:21:39;98584.09;;;11.31;91.46
12215;BME280;6170;42.206;24.142;2023-04-22T03:24:07;98571.00;;;10.90;92.18
12215;BME280;6170;42.206;24.142;2023-04-22T03:26:34;98568.69;;;11.13;91.77
12215;BME280;6170;42.206;24.142;2023-04-22T03:29:01;98575.75;;;10.88;91.95
12215;BME280;6170;42.206;24.142;2023-04-22T03:31:28;98582.94;;;10.94;91.99
12215;BME280;6170;42.206;24.142;2023-04-22T03:33:55;98573.72;;;10.83;91.35
12215;BME280;6170;42.206;24.142;2023-04-22T03:36:21;98576.81;;;10.60;92.32
12215;BME280;6170;42.206;24.142;2023-04-22T03:38:48;98602.97;;;10.85;92.30
12215;BME280;6170;42.206;24.142;2023-04-22T03:41:17;98580.53;;;10.72;91.13
12215;BME280;6170;42.206;24.142;2023-04-22T03:43:44;98577.63;;;10.74;91.71
12215;BME280;6170;42.206;24.142;2023-04-22T03:46:11;98585.47;;;10.49;92.12
12215;BME280;6170;42.206;24.142;2023-04-22T03:48:37;98587.75;;;10.52;91.67
12215;BME280;6170;42.206;24.142;2023-04-22T03:51:04;98584.25;;;10.25;93.35
12215;BME280;6170;42.206;24.142;2023-04-22T03:53:31;98590.81;;;10.36;92.91
12215;BME280;6170;42.206;24.142;2023-04-22T03:55:58;98587.97;;;10.51;92.30
12215;BME280;6170;42.206;24.142;2023-04-22T03:58:26;98605.06;;;10.50;91.91
12215;BME280;6170;42.206;24.142;2023-04-22T04:00:53;98610.00;;;10.53;92.11
12215;BME280;6170;42.206;24.142;2023-04-22T04:03:20;98603.59;;;10.54;92.19
12215;BME280;6170;42.206;24.142;2023-04-22T04:05:47;98611.47;;;10.49;92.51
12215;BME280;6170;42.206;24.142;2023-04-22T04:08:14;98645.66;;;10.73;92.33
12215;BME280;6170;42.206;24.142;2023-04-22T04:10:41;98614.34;;;10.60;92.37
12215;BME280;6170;42.206;24.142;2023-04-22T04:13:08;98619.25;;;10.76;92.39
12215;BME280;6170;42.206;24.142;2023-04-22T04:15:37;98642.97;;;10.93;91.15
12215;BME280;6170;42.206;24.142;2023-04-22T04:18:04;98617.63;;;10.82;90.12
12215;BME280;6170;42.206;24.142;2023-04-22T04:20:31;98608.53;;;10.96;88.43
12215;BME280;6170;42.206;24.142;2023-04-22T04:22:58;98627.22;;;11.29;88.17
12215;BME280;6170;42.206;24.142;2023-04-22T04:25:25;98627.81;;;11.44;87.32
12215;BME280;6170;42.206;24.142;2023-04-22T04:27:53;98629.16;;;11.73;86.47
12215;BME280;6170;42.206;24.142;2023-04-22T04:30:21;98633.63;;;12.24;85.43
12215;BME280;6170;42.206;24.142;2023-04-22T04:32:49;98633.88;;;12.78;84.25
12215;BME280;6170;42.206;24.142;2023-04-22T04:35:16;98634.72;;;12.97;82.88
12215;BME280;6170;42.206;24.142;2023-04-22T04:37:44;98627.59;;;12.84;81.88
12215;BME280;6170;42.206;24.142;2023-04-22T04:40:11;98640.38;;;12.64;81.75
12215;BME280;6170;42.206;24.142;2023-04-22T04:42:38;98620.44;;;13.58;80.89
12215;BME280;6170;42.206;24.142;2023-04-22T04:45:07;98668.22;;;14.58;77.25
12215;BME280;6170;42.206;24.142;2023-04-22T04:47:34;98637.75;;;14.69;76.30
12215;BME280;6170;42.206;24.142;2023-04-22T04:50:02;98641.66;;;14.73;75.11
12215;BME280;6170;42.206;24.142;2023-04-22T04:52:29;98638.25;;;14.78;76.44
12215;BME280;6170;42.206;24.142;2023-04-22T04:54:57;98642.34;;;14.69;76.10
12215;BME280;6170;42.206;24.142;2023-04-22T04:57:24;98631.56;;;14.80;76.91
12215;BME280;6170;42.206;24.142;2023-04-22T04:59:51;98632.16;;;15.06;75.41
12215;BME280;6170;42.206;24.142;2023-04-22T05:02:18;98639.78;;;15.20;73.66
12215;BME280;6170;42.206;24.142;2023-04-22T05:04:44;98649.91;;;14.49;74.87
12215;BME280;6170;42.206;24.142;2023-04-22T05:07:13;98640.34;;;14.64;76.11
12215;BME280;6170;42.206;24.142;2023-04-22T05:09:40;98655.91;;;14.51;77.97
12215;BME280;6170;42.206;24.142;2023-04-22T05:12:07;98641.06;;;14.83;74.79
12215;BME280;6170;42.206;24.142;2023-04-22T05:14:34;98645.78;;;15.11;75.02
12215;BME280;6170;42.206;24.142;2023-04-22T05:17:01;98647.03;;;15.32;72.74
12215;BME280;6170;42.206;24.142;2023-04-22T05:19:28;98642.59;;;15.14;73.41
12215;BME280;6170;42.206;24.142;2023-04-22T05:21:55;98645.72;;;14.34;75.00
12215;BME280;6170;42.206;24.142;2023-04-22T05:24:24;98641.41;;;14.63;75.88
12215;BME280;6170;42.206;24.142;2023-04-22T05:26:51;98650.91;;;15.01;73.90
12215;BME280;6170;42.206;24.142;2023-04-22T05:29:18;98643.56;;;15.31;73.23
12215;BME280;6170;42.206;24.142;2023-04-22T05:31:44;98650.78;;;15.77;74.34
12215;BME280;6170;42.206;24.142;2023-04-22T05:34:11;98663.00;;;15.80;74.14
12215;BME280;6170;42.206;24.142;2023-04-22T05:36:38;98645.97;;;16.36;71.07
12215;BME280;6170;42.206;24.142;2023-04-22T05:39:06;98650.25;;;16.20;71.38
12215;BME280;6170;42.206;24.142;2023-04-22T05:41:34;98648.78;;;16.41;71.35
12215;BME280;6170;42.206;24.142;2023-04-22T05:44:01;98646.72;;;16.93;70.39
12215;BME280;6170;42.206;24.142;2023-04-22T05:46:28;98648.84;;;16.74;69.40
12215;BME280;6170;42.206;24.142;2023-04-22T05:48:55;98644.66;;;17.55;68.96
12215;BME280;6170;42.206;24.142;2023-04-22T05:51:22;98638.91;;;17.13;68.73
12215;BME280;6170;42.206;24.142;2023-04-22T05:53:49;98643.06;;;17.37;69.32
12215;BME280;6170;42.206;24.142;2023-04-22T05:56:16;98643.69;;;17.44;68.13
12215;BME280;6170;42.206;24.142;2023-04-22T05:58:44;98646.66;;;17.43;68.12
12215;BME280;6170;42.206;24.142;2023-04-22T06:01:11;98638.84;;;17.85;67.97
12215;BME280;6170;42.206;24.142;2023-04-22T06:03:38;98639.31;;;18.25;66.25
12215;BME280;6170;42.206;24.142;2023-04-22T06:06:05;98646.78;;;17.53;67.70
12215;BME280;6170;42.206;24.142;2023-04-22T06:08:32;98636.72;;;17.65;67.18
12215;BME280;6170;42.206;24.142;2023-04-22T06:10:59;98651.69;;;17.94;67.45
12215;BME280;6170;42.206;24.142;2023-04-22T06:13:26;98644.13;;;18.45;65.53
12215;BME280;6170;42.206;24.142;2023-04-22T06:15:54;98658.94;;;18.91;64.64
12215;BME280;6170;42.206;24.142;2023-04-22T06:18:21;98650.50;;;18.34;67.04
12215;BME280;6170;42.206;24.142;2023-04-22T06:20:48;98660.22;;;18.78;66.03
12215;BME280;6170;42.206;24.142;2023-04-22T06:23:15;98655.91;;;18.82;64.93
12215;BME280;6170;42.206;24.142;2023-04-22T06:25:42;98658.03;;;19.12;61.79
12215;BME280;6170;42.206;24.142;2023-04-22T06:28:09;98657.63;;;18.94;64.21
12215;BME280;6170;42.206;24.142;2023-04-22T06:30:36;98653.66;;;18.74;65.65
12215;BME280;6170;42.206;24.142;2023-04-22T06:33:04;98665.72;;;18.89;63.36
12215;BME280;6170;42.206;24.142;2023-04-22T06:35:31;98660.91;;;19.74;64.86
12215;BME280;6170;42.206;24.142;2023-04-22T06:37:58;98654.63;;;18.95;62.89
12215;BME280;6170;42.206;24.142;2023-04-22T06:40:25;98663.78;;;19.16;62.63
12215;BME280;6170;42.206;24.142;2023-04-22T06:42:51;98664.41;;;19.28;61.94
12215;BME280;6170;42.206;24.142;2023-04-22T06:45:19;98655.09;;;19.61;59.76
12215;BME280;6170;42.206;24.142;2023-04-22T06:47:46;98657.91;;;19.76;59.11
12215;BME280;6170;42.206;24.142;2023-04-22T06:50:14;98659.81;;;20.38;59.90
12215;BME280;6170;42.206;24.142;2023-04-22T06:52:41;98644.34;;;19.39;62.20
12215;BME280;6170;42.206;24.142;2023-04-22T06:55:08;98663.94;;;19.78;60.32
12215;BME280;6170;42.206;24.142;2023-04-22T06:57:35;98652.75;;;20.52;60.78
12215;BME280;6170;42.206;24.142;2023-04-22T07:00:03;98650.47;;;20.13;58.29
12215;BME280;6170;42.206;24.142;2023-04-22T07:02:30;98658.50;;;20.66;59.56
12215;BME280;6170;42.206;24.142;2023-04-22T07:04:57;98654.91;;;20.50;59.13
12215;BME280;6170;42.206;24.142;2023-04-22T07:07:25;98654.28;;;20.23;58.71
12215;BME280;6170;42.206;24.142;2023-04-22T07:09:52;98651.97;;;20.61;58.66
12215;BME280;6170;42.206;24.142;2023-04-22T07:12:19;98652.78;;;20.57;55.80
12215;BME280;6170;42.206;24.142;2023-04-22T07:14:48;98659.78;;;19.28;56.91
12215;BME280;6170;42.206;24.142;2023-04-22T07:17:15;98645.59;;;20.21;56.44
12215;BME280;6170;42.206;24.142;2023-04-22T07:19:44;98649.41;;;19.62;60.23
12215;BME280;6170;42.206;24.142;2023-04-22T07:22:11;98659.00;;;20.42;56.56
12215;BME280;6170;42.206;24.142;2023-04-22T07:24:39;98656.06;;;20.84;56.24
12215;BME280;6170;42.206;24.142;2023-04-22T07:27:06;98651.56;;;20.23;54.96
12215;BME280;6170;42.206;24.142;2023-04-22T07:29:33;98658.38;;;20.25;58.41
12215;BME280;6170;42.206;24.142;2023-04-22T07:32:00;98654.16;;;21.00;58.00
12215;BME280;6170;42.206;24.142;2023-04-22T07:34:27;98656.53;;;21.77;55.69
12215;BME280;6170;42.206;24.142;2023-04-22T07:36:54;98649.28;;;21.17;57.33
12215;BME280;6170;42.206;24.142;2023-04-22T07:39:21;98660.88;;;21.73;56.14
12215;BME280;6170;42.206;24.142;2023-04-22T07:41:49;98663.75;;;20.00;56.26
12215;BME280;6170;42.206;24.142;2023-04-22T07:44:17;98661.72;;;19.75;59.65
12215;BME280;6170;42.206;24.142;2023-04-22T07:46:46;98651.59;;;18.87;59.11
12215;BME280;6170;42.206;24.142;2023-04-22T07:49:13;98642.53;;;18.49;62.38
12215;BME280;6170;42.206;24.142;2023-04-22T07:51:42;98654.06;;;19.25;57.68
12215;BME280;6170;42.206;24.142;2023-04-22T07:54:09;98654.53;;;20.11;58.30
12215;BME280;6170;42.206;24.142;2023-04-22T07:56:36;98640.88;;;20.01;58.47
12215;BME280;6170;42.206;24.142;2023-04-22T07:59:04;98649.34;;;20.09;60.30
12215;BME280;6170;42.206;24.142;2023-04-22T08:01:31;98645.59;;;20.26;57.44
12215;BME280;6170;42.206;24.142;2023-04-22T08:03:58;98643.72;;;20.36;61.28
12215;BME280;6170;42.206;24.142;2023-04-22T08:06:25;98635.69;;;19.89;57.03
12215;BME280;6170;42.206;24.142;2023-04-22T08:08:52;98659.31;;;20.56;59.11
12215;BME280;6170;42.206;24.142;2023-04-22T08:11:19;98635.34;;;21.34;56.48
12215;BME280;6170;42.206;24.142;2023-04-22T08:13:46;98639.72;;;20.64;56.53
12215;BME280;6170;42.206;24.142;2023-04-22T08:16:14;98638.38;;;20.67;55.64
12215;BME280;6170;42.206;24.142;2023-04-22T08:18:41;98630.09;;;20.26;55.95
12215;BME280;6170;42.206;24.142;2023-04-22T08:21:08;98650.59;;;20.94;58.72
12215;BME280;6170;42.206;24.142;2023-04-22T08:23:36;98625.00;;;21.21;59.40
12215;BME280;6170;42.206;24.142;2023-04-22T08:26:03;98618.47;;;21.22;54.29
12215;BME280;6170;42.206;24.142;2023-04-22T08:28:33;98623.34;;;20.54;53.81
12215;BME280;6170;42.206;24.142;2023-04-22T08:31:00;98629.91;;;20.78;55.39
12215;BME280;6170;42.206;24.142;2023-04-22T08:33:28;98626.91;;;20.54;55.57
12215;BME280;6170;42.206;24.142;2023-04-22T08:35:55;98614.09;;;20.30;56.38
12215;BME280;6170;42.206;24.142;2023-04-22T08:38:22;98623.38;;;21.04;61.76
12215;BME280;6170;42.206;24.142;2023-04-22T08:40:49;98615.66;;;21.62;55.12
12215;BME280;6170;42.206;24.142;2023-04-22T08:43:17;98609.75;;;20.94;54.26
12215;BME280;6170;42.206;24.142;2023-04-22T08:45:45;98606.22;;;20.58;54.94
12215;BME280;6170;42.206;24.142;2023-04-22T08:48:13;98606.63;;;19.95;56.01
12215;BME280;6170;42.206;24.142;2023-04-22T08:50:41;98601.59;;;20.59;55.55
12215;BME280;6170;42.206;24.142;2023-04-22T08:53:08;98596.41;;;20.98;57.69
12215;BME280;6170;42.206;24.142;2023-04-22T08:55:35;98573.28;;;20.70;59.27
12215;BME280;6170;42.206;24.142;2023-04-22T08:58:03;98578.63;;;20.04;57.64
12215;BME280;6170;42.206;24.142;2023-04-22T09:00:31;98572.44;;;19.47;59.50
12215;BME280;6170;42.206;24.142;2023-04-22T09:03:00;98574.28;;;18.99;62.30
12215;BME280;6170;42.206;24.142;2023-04-22T09:05:28;98577.94;;;19.15;59.22
12215;BME280;6170;42.206;24.142;2023-04-22T09:08:00;98575.81;;;19.79;59.96
12215;BME280;6170;42.206;24.142;2023-04-22T09:10:28;98566.47;;;19.50;59.74
12215;BME280;6170;42.206;24.142;2023-04-22T09:12:55;98594.38;;;19.97;59.39
12215;BME280;6170;42.206;24.142;2023-04-22T09:15:23;98562.94;;;20.72;56.80
12215;BME280;6170;42.206;24.142;2023-04-22T09:17:50;98560.19;;;20.82;57.96
12215;BME280;6170;42.206;24.142;2023-04-22T09:20:17;98537.63;;;20.46;57.83
12215;BME280;6170;42.206;24.142;2023-04-22T09:22:47;98567.28;;;20.43;59.67
12215;BME280;6170;42.206;24.142;2023-04-22T09:25:17;98555.31;;;20.64;55.35
12215;BME280;6170;42.206;24.142;2023-04-22T09:27:47;98558.84;;;20.65;56.71
12215;BME280;6170;42.206;24.142;2023-04-22T09:30:16;98549.88;;;20.74;58.36
12215;BME280;6170;42.206;24.142;2023-04-22T09:32:51;98539.47;;;21.06;57.14
12215;BME280;6170;42.206;24.142;2023-04-22T09:35:25;98540.63;;;20.75;55.62
12215;BME280;6170;42.206;24.142;2023-04-22T09:37:53;98526.94;;;21.11;52.13
12215;BME280;6170;42.206;24.142;2023-04-22T09:40:22;98527.81;;;20.71;56.93
12215;BME280;6170;42.206;24.142;2023-04-22T09:42:52;98508.22;;;20.63;54.74
12215;BME280;6170;42.206;24.142;2023-04-22T09:45:27;98500.56;;;20.81;58.77
12215;BME280;6170;42.206;24.142;2023-04-22T09:47:54;98509.53;;;20.81;55.39
12215;BME280;6170;42.206;24.142;2023-04-22T09:50:24;98509.22;;;21.23;56.06
12215;BME280;6170;42.206;24.142;2023-04-22T09:52:53;98525.63;;;20.93;57.09
12215;BME280;6170;42.206;24.142;2023-04-22T09:55:24;98500.41;;;21.95;54.80
12215;BME280;6170;42.206;24.142;2023-04-22T09:57:52;98500.28;;;21.67;52.96
12215;BME280;6170;42.206;24.142;2023-04-22T10:00:20;98520.41;;;21.81;47.96
12215;BME280;6170;42.206;24.142;2023-04-22T10:02:47;98485.97;;;22.34;51.08
12215;BME280;6170;42.206;24.142;2023-04-22T10:05:14;98481.72;;;22.52;53.26
12215;BME280;6170;42.206;24.142;2023-04-22T10:07:41;98473.16;;;22.29;51.64
12215;BME280;6170;42.206;24.142;2023-04-22T10:10:08;98478.31;;;22.31;52.17
12215;BME280;6170;42.206;24.142;2023-04-22T10:12:37;98486.38;;;21.68;50.04
12215;BME280;6170;42.206;24.142;2023-04-22T10:15:04;98483.09;;;22.49;51.03
12215;BME280;6170;42.206;24.142;2023-04-22T10:17:35;98484.34;;;22.28;50.95
12215;BME280;6170;42.206;24.142;2023-04-22T10:20:06;98466.06;;;21.89;47.62
12215;BME280;6170;42.206;24.142;2023-04-22T10:22:38;98462.78;;;21.87;47.74
12215;BME280;6170;42.206;24.142;2023-04-22T10:25:10;98465.28;;;22.23;46.92
12215;BME280;6170;42.206;24.142;2023-04-22T10:27:39;98468.94;;;21.64;47.56
12215;BME280;6170;42.206;24.142;2023-04-22T10:30:09;98471.75;;;21.54;50.65
12215;BME280;6170;42.206;24.142;2023-04-22T10:32:37;98466.91;;;21.85;50.90
12215;BME280;6170;42.206;24.142;2023-04-22T10:35:12;98471.81;;;21.34;49.04
12215;BME280;6170;42.206;24.142;2023-04-22T10:37:43;98473.56;;;20.89;49.05
12215;BME280;6170;42.206;24.142;2023-04-22T10:40:14;98479.91;;;20.70;52.26
12215;BME280;6170;42.206;24.142;2023-04-22T10:42:46;98486.16;;;20.60;50.55
12215;BME280;6170;42.206;24.142;2023-04-22T10:45:13;98505.22;;;20.70;50.55
12215;BME280;6170;42.206;24.142;2023-04-22T10:47:41;98517.13;;;19.93;51.43
12215;BME280;6170;42.206;24.142;2023-04-22T10:50:10;98527.84;;;18.54;51.69
12215;BME280;6170;42.206;24.142;2023-04-22T10:52:38;98528.59;;;18.17;53.91
12215;BME280;6170;42.206;24.142;2023-04-22T10:55:05;98530.75;;;17.45;57.69
12215;BME280;6170;42.206;24.142;2023-04-22T10:57:35;98539.16;;;16.67;59.76
12215;BME280;6170;42.206;24.142;2023-04-22T11:00:22;98556.41;;;15.87;69.97
12215;BME280;6170;42.206;24.142;2023-04-22T11:02:54;98542.66;;;14.62;73.97
12215;BME280;6170;42.206;24.142;2023-04-22T11:05:22;98555.78;;;14.70;75.39
12215;BME280;6170;42.206;24.142;2023-04-22T11:07:52;98555.22;;;14.68;79.56
12215;BME280;6170;42.206;24.142;2023-04-22T11:10:36;98560.91;;;15.30;80.61
12215;BME280;6170;42.206;24.142;2023-04-22T11:13:06;98575.47;;;15.29;75.40
12215;BME280;6170;42.206;24.142;2023-04-22T11:15:36;98556.16;;;15.09;75.32
12215;BME280;6170;42.206;24.142;2023-04-22T11:18:07;98557.78;;;15.10;79.28
12215;BME280;6170;42.206;24.142;2023-04-22T11:20:35;98575.81;;;15.33;76.75
12215;BME280;6170;42.206;24.142;2023-04-22T11:23:02;98580.09;;;14.94;78.64
12215;BME280;6170;42.206;24.142;2023-04-22T11:25:29;98578.91;;;15.13;76.74
12215;BME280;6170;42.206;24.142;2023-04-22T11:27:57;98590.97;;;14.22;79.02
12215;BME280;6170;42.206;24.142;2023-04-22T11:30:25;98560.47;;;14.40;81.20
12215;BME280;6170;42.206;24.142;2023-04-22T11:32:55;98586.16;;;14.54;80.07
12215;BME280;6170;42.206;24.142;2023-04-22T11:35:27;98566.34;;;14.83;80.61
12215;BME280;6170;42.206;24.142;2023-04-22T11:37:55;98591.00;;;14.99;79.55
12215;BME280;6170;42.206;24.142;2023-04-22T11:40:24;98576.56;;;15.16;77.33
12215;BME280;6170;42.206;24.142;2023-04-22T11:42:52;98574.69;;;14.94;76.28
12215;BME280;6170;42.206;24.142;2023-04-22T11:45:19;98580.28;;;15.39;76.15
12215;BME280;6170;42.206;24.142;2023-04-22T11:47:48;98570.06;;;15.81;76.65
12215;BME280;6170;42.206;24.142;2023-04-22T11:50:20;98584.09;;;15.94;74.31
12215;BME280;6170;42.206;24.142;2023-04-22T11:52:48;98587.38;;;16.25;75.22
12215;BME280;6170;42.206;24.142;2023-04-22T11:55:18;98592.31;;;16.28;73.27
12215;BME280;6170;42.206;24.142;2023-04-22T11:57:51;98598.81;;;17.10;73.59
12215;BME280;6170;42.206;24.142;2023-04-22T12:00:18;98582.00;;;17.68;76.45
12215;BME280;6170;42.206;24.142;2023-04-22T12:02:54;98578.09;;;18.08;68.35
12215;BME280;6170;42.206;24.142;2023-04-22T12:05:33;98598.41;;;18.91;70.18
12215;BME280;6170;42.206;24.142;2023-04-22T12:08:00;98589.78;;;18.08;64.63
12215;BME280;6170;42.206;24.142;2023-04-22T12:10:28;98601.94;;;18.06;66.65
12215;BME280;6170;42.206;24.142;2023-04-22T12:12:55;98598.72;;;17.60;67.09
12215;BME280;6170;42.206;24.142;2023-04-22T12:15:22;98609.22;;;17.40;68.08
12215;BME280;6170;42.206;24.142;2023-04-22T12:17:49;98609.06;;;17.46;69.35
12215;BME280;6170;42.206;24.142;2023-04-22T12:20:17;98614.88;;;17.17;68.02
12215;BME280;6170;42.206;24.142;2023-04-22T12:22:45;98616.78;;;17.16;69.90
12215;BME280;6170;42.206;24.142;2023-04-22T12:25:16;98624.09;;;16.99;70.50
12215;BME280;6170;42.206;24.142;2023-04-22T12:27:44;98629.16;;;16.62;69.71
12215;BME280;6170;42.206;24.142;2023-04-22T12:30:12;98629.34;;;16.44;67.16
12215;BME280;6170;42.206;24.142;2023-04-22T12:32:39;98641.69;;;16.23;71.78
12215;BME280;6170;42.206;24.142;2023-04-22T12:35:07;98642.94;;;16.60;74.38
12215;BME280;6170;42.206;24.142;2023-04-22T12:37:34;98646.53;;;16.38;72.87
12215;BME280;6170;42.206;24.142;2023-04-22T12:40:03;98652.75;;;16.22;71.14
12215;BME280;6170;42.206;24.142;2023-04-22T12:42:31;98649.41;;;16.03;71.51
12215;BME280;6170;42.206;24.142;2023-04-22T12:44:58;98652.59;;;16.28;70.71
12215;BME280;6170;42.206;24.142;2023-04-22T12:47:25;98656.47;;;16.32;72.24
12215;BME280;6170;42.206;24.142;2023-04-22T12:49:51;98663.06;;;16.25;70.20
12215;BME280;6170;42.206;24.142;2023-04-22T12:52:18;98648.56;;;16.14;69.89
12215;BME280;6170;42.206;24.142;2023-04-22T12:54:45;98645.22;;;16.24;69.34
12215;BME280;6170;42.206;24.142;2023-04-22T12:57:14;98680.78;;;16.60;69.90
12215;BME280;6170;42.206;24.142;2023-04-22T12:59:41;98679.19;;;16.76;68.46
12215;BME280;6170;42.206;24.142;2023-04-22T13:02:09;98686.25;;;17.11;71.95